createdAt,value
2019-04-20T00:02:08.302Z,6.77
2019-04-20T00:06:04.830Z,6.67
2019-04-20T00:10:13.739Z,6.79
2019-04-20T00:14:19.227Z,6.77
2019-04-20T00:18:25.939Z,6.71
2019-04-20T00:22:36.706Z,6.62
2019-04-20T00:27:06.122Z,6.27
2019-04-20T00:30:59.051Z,6.00
2019-04-20T00:34:48.850Z,5.97
2019-04-20T00:38:55.074Z,5.97
2019-04-20T00:42:59.564Z,5.59
2019-04-20T00:47:13.295Z,5.50
2019-04-20T00:51:30.591Z,5.59
2019-04-20T00:55:14.931Z,5.63
2019-04-20T00:59:31.759Z,5.62
2019-04-20T01:03:38.991Z,5.56
2019-04-20T01:07:52.948Z,5.66
2019-04-20T01:11:52.897Z,5.53
2019-04-20T01:16:05.031Z,5.32
2019-04-20T01:20:01.900Z,5.34
2019-04-20T01:24:08.291Z,5.41
2019-04-20T01:28:29.937Z,5.40
2019-04-20T01:32:29.194Z,5.25
2019-04-20T01:36:43.624Z,5.36
2019-04-20T01:40:27.506Z,5.25
2019-04-20T01:44:36.770Z,4.41
2019-04-20T01:48:38.661Z,4.41
2019-04-20T01:52:54.015Z,4.45
2019-04-20T01:56:58.045Z,4.64
2019-04-20T02:01:00.371Z,4.85
2019-04-20T02:05:13.580Z,4.87
2019-04-20T02:09:15.664Z,4.86
2019-04-20T02:13:17.401Z,4.59
2019-04-20T02:17:29.759Z,4.23
2019-04-20T02:21:44.953Z,4.23
2019-04-20T02:25:34.003Z,4.13
2019-04-20T02:29:58.151Z,4.06
2019-04-20T02:34:15.705Z,4.18
2019-04-20T02:38:23.130Z,4.46
2019-04-20T02:42:42.809Z,4.48
2019-04-20T02:46:31.722Z,4.42
2019-04-20T02:54:52.708Z,4.69
2019-04-20T02:59:02.026Z,4.19
2019-04-20T03:02:41.538Z,3.97
2019-04-20T03:06:54.864Z,3.71
2019-04-20T03:11:09.391Z,3.72
2019-04-20T03:14:59.717Z,4.03
2019-04-20T03:19:08.085Z,3.95
2019-04-20T03:27:24.782Z,3.84
2019-04-20T03:31:58.670Z,3.70
2019-04-20T03:35:43.175Z,3.44
2019-04-20T03:39:41.688Z,3.24
2019-04-20T03:43:32.826Z,3.34
2019-04-20T03:47:49.736Z,3.15
2019-04-20T03:52:03.690Z,3.11
2019-04-20T03:56:30.905Z,3.19
2019-04-20T04:00:50.768Z,3.23
2019-04-20T04:05:08.800Z,3.20
2019-04-20T04:09:12.316Z,3.14
2019-04-20T04:13:16.790Z,3.28
2019-04-20T04:17:27.911Z,3.53
2019-04-20T04:21:40.828Z,3.70
2019-04-20T04:25:49.979Z,3.44
2019-04-20T04:29:58.228Z,3.46
2019-04-20T04:34:12.517Z,3.29
2019-04-20T04:38:06.691Z,3.13
2019-04-20T04:42:17.845Z,3.33
2019-04-20T04:45:59.557Z,3.33
2019-04-20T04:50:10.783Z,3.72
2019-04-20T04:54:16.560Z,4.09
2019-04-20T04:58:14.903Z,4.40
2019-04-20T05:02:23.611Z,4.51
2019-04-20T05:06:37.734Z,4.91
2019-04-20T05:10:29.579Z,5.26
2019-04-20T05:14:48.212Z,5.77
2019-04-20T05:19:07.713Z,5.87
2019-04-20T05:23:12.685Z,6.20
2019-04-20T05:27:30.197Z,6.43
2019-04-20T05:31:18.500Z,6.81
2019-04-20T05:35:43.449Z,7.22
2019-04-20T05:39:50.394Z,7.58
2019-04-20T05:44:01.615Z,7.62
2019-04-20T05:48:09.056Z,7.87
2019-04-20T05:52:28.923Z,8.02
2019-04-20T05:56:28.629Z,7.73
2019-04-20T06:00:33.561Z,8.11
2019-04-20T06:04:55.903Z,8.11
2019-04-20T06:08:45.316Z,8.61
2019-04-20T06:12:48.386Z,9.07
2019-04-20T06:17:04.760Z,8.63
2019-04-20T06:21:15.829Z,10.34
2019-04-20T06:25:31.588Z,11.17
2019-04-20T06:29:13.683Z,9.95
2019-04-20T06:38:23.206Z,11.23
2019-04-20T06:46:14.851Z,11.52
2019-04-20T06:50:17.289Z,11.34
2019-04-20T06:54:17.341Z,12.28
2019-04-20T07:02:41.206Z,12.09
2019-04-20T07:06:50.753Z,11.80
2019-04-20T07:10:57.832Z,11.80
2019-04-20T07:14:46.999Z,11.88
2019-04-20T07:19:17.234Z,12.92
2019-04-20T07:23:23.725Z,13.19
2019-04-20T07:27:22.933Z,14.91
2019-04-20T07:31:24.241Z,14.98
2019-04-20T07:35:30.489Z,16.54
2019-04-20T07:39:40.323Z,19.49
2019-04-20T07:43:54.139Z,21.07
2019-04-20T07:51:38.383Z,21.22
2019-04-20T07:56:00.546Z,24.15
2019-04-20T08:00:06.327Z,26.31
2019-04-20T08:04:13.550Z,24.63
2019-04-20T08:08:18.119Z,27.41
2019-04-20T08:12:51.601Z,21.59
2019-04-20T08:17:05.436Z,25.63
2019-04-20T08:20:52.658Z,25.43
2019-04-20T08:25:00.318Z,27.65
2019-04-20T08:28:58.089Z,26.97
2019-04-20T08:33:19.469Z,26.19
2019-04-20T08:37:26.631Z,23.82
2019-04-20T08:41:25.124Z,27.23
2019-04-20T08:45:43.307Z,25.13
2019-04-20T08:50:13.106Z,26.36
2019-04-20T08:54:08.418Z,24.16
2019-04-20T08:57:54.624Z,23.65
2019-04-20T09:02:05.122Z,24.36
2019-04-20T09:06:21.561Z,27.75
2019-04-20T09:10:34.314Z,28.84
2019-04-20T09:14:21.379Z,29.21
2019-04-20T09:18:34.453Z,27.94
2019-04-20T09:22:50.701Z,26.74
2019-04-20T09:27:01.148Z,27.24
2019-04-20T09:31:12.037Z,28.44
2019-04-20T09:35:20.985Z,26.40
2019-04-20T09:39:29.530Z,27.44
2019-04-20T09:43:30.718Z,26.90
2019-04-20T09:47:41.931Z,26.83
2019-04-20T09:51:56.387Z,26.21
2019-04-20T09:56:01.915Z,28.87
2019-04-20T10:00:07.175Z,24.46
2019-04-20T10:03:57.081Z,26.96
2019-04-20T10:08:04.368Z,28.14
2019-04-20T10:12:07.806Z,27.53
2019-04-20T10:16:11.529Z,26.02
2019-04-20T10:20:23.558Z,28.03
2019-04-20T10:24:20.871Z,27.78
2019-04-20T10:28:25.616Z,28.36
2019-04-20T10:32:36.257Z,23.89
2019-04-20T10:36:43.467Z,24.18
2019-04-20T10:40:59.724Z,24.83
2019-04-20T10:44:55.879Z,24.35
2019-04-20T10:49:02.804Z,27.41
2019-04-20T10:53:03.701Z,28.44
2019-04-20T10:57:07.883Z,26.71
2019-04-20T11:01:11.666Z,25.90
2019-04-20T11:05:16.819Z,27.41
2019-04-20T11:09:20.770Z,26.88
2019-04-20T11:13:25.547Z,25.32
2019-04-20T11:17:30.565Z,21.77
2019-04-20T11:21:34.551Z,21.30
2019-04-20T11:25:38.268Z,21.65
2019-04-20T11:29:42.207Z,20.86
2019-04-20T11:33:45.968Z,20.90
2019-04-20T11:37:49.621Z,21.63
2019-04-20T11:41:53.971Z,21.66
2019-04-20T11:45:58.464Z,20.82
2019-04-20T11:50:03.684Z,21.12
2019-04-20T11:54:08.288Z,20.68
2019-04-20T11:58:12.201Z,21.03
2019-04-20T12:02:39.852Z,20.60
2019-04-20T12:06:39.306Z,21.26
2019-04-20T12:10:48.124Z,20.38
2019-04-20T12:14:48.526Z,20.51
2019-04-20T12:18:52.553Z,21.41
2019-04-20T12:22:56.303Z,21.02
2019-04-20T12:27:00.750Z,20.76
2019-04-20T12:31:12.887Z,19.37
2019-04-20T12:35:11.999Z,19.77
2019-04-20T12:39:16.936Z,19.79
2019-04-20T12:43:20.997Z,20.72
2019-04-20T12:47:25.754Z,20.24
2019-04-20T12:51:33.786Z,19.81
2019-04-20T12:55:34.787Z,20.61
2019-04-20T12:59:39.266Z,20.51
2019-04-20T13:03:43.921Z,20.57
2019-04-20T13:07:53.206Z,21.17
2019-04-20T13:12:01.114Z,20.87
2019-04-20T13:16:05.927Z,20.91
2019-04-20T13:20:10.108Z,20.82
2019-04-20T13:24:13.706Z,20.76
2019-04-20T13:28:18.902Z,21.01
2019-04-20T13:32:23.518Z,21.01
2019-04-20T13:36:28.519Z,21.05
2019-04-20T13:40:33.410Z,20.91
2019-04-20T13:44:37.074Z,21.40
2019-04-20T13:48:40.786Z,21.55
2019-04-20T13:52:44.767Z,21.06
2019-04-20T13:56:50.106Z,20.65
2019-04-20T14:00:55.960Z,20.94
2019-04-20T14:05:02.769Z,20.96
2019-04-20T14:09:09.821Z,21.11
2019-04-20T14:13:17.493Z,21.11
2019-04-20T14:17:19.261Z,21.14
2019-04-20T14:21:23.941Z,21.23
2019-04-20T14:25:29.003Z,21.13
2019-04-20T14:29:32.871Z,20.55
2019-04-20T14:33:37.021Z,20.76
2019-04-20T14:37:41.678Z,21.15
2019-04-20T14:41:46.518Z,20.85
2019-04-20T14:45:50.549Z,21.08
2019-04-20T14:49:55.156Z,21.02
2019-04-20T14:53:59.620Z,21.44
2019-04-20T14:58:05.793Z,21.23
2019-04-20T15:02:15.366Z,21.15
2019-04-20T15:06:19.955Z,21.58
2019-04-20T15:10:24.837Z,21.13
2019-04-20T15:14:29.058Z,21.03
2019-04-20T15:18:35.583Z,20.56
2019-04-20T15:22:41.377Z,20.56
2019-04-20T15:26:45.114Z,20.31
2019-04-20T15:30:50.000Z,20.48
2019-04-20T15:34:53.567Z,20.49
2019-04-20T15:38:57.176Z,20.08
2019-04-20T15:43:09.752Z,19.82
2019-04-20T15:47:07.019Z,19.80
2019-04-20T15:51:12.050Z,19.73
2019-04-20T15:55:21.562Z,19.71
2019-04-20T15:59:22.228Z,19.72
2019-04-20T16:03:27.706Z,19.47
2019-04-20T16:07:40.590Z,19.36
2019-04-20T16:11:37.002Z,19.28
2019-04-20T16:15:40.763Z,19.31
2019-04-20T16:19:52.229Z,19.24
2019-04-20T16:23:52.594Z,19.04
2019-04-20T16:27:56.315Z,19.09
2019-04-20T16:32:00.474Z,18.95
2019-04-20T16:36:04.799Z,18.96
2019-04-20T16:40:09.888Z,18.93
2019-04-20T16:44:13.552Z,18.89
2019-04-20T16:48:18.015Z,18.76
2019-04-20T16:52:22.962Z,18.74
2019-04-20T16:56:26.671Z,18.66
2019-04-20T17:00:31.526Z,18.53
2019-04-20T17:04:35.606Z,18.44
2019-04-20T17:08:41.589Z,18.35
2019-04-20T17:12:45.911Z,18.29
2019-04-20T17:16:49.624Z,18.22
2019-04-20T17:20:53.698Z,18.16
2019-04-20T17:24:58.419Z,18.05
2019-04-20T17:29:10.573Z,17.95
2019-04-20T17:33:22.453Z,17.84
2019-04-20T17:37:24.791Z,17.65
2019-04-20T17:41:49.980Z,17.59
2019-04-20T17:45:43.214Z,17.41
2019-04-20T17:50:00.711Z,17.28
2019-04-20T17:53:52.776Z,17.15
2019-04-20T17:57:53.186Z,16.93
2019-04-20T18:02:14.532Z,16.75
2019-04-20T18:06:20.286Z,16.52
2019-04-20T18:10:29.014Z,16.46
2019-04-20T18:14:35.237Z,16.07
2019-04-20T18:18:39.099Z,16.07
2019-04-20T18:22:29.638Z,15.83
2019-04-20T18:26:52.138Z,15.65
2019-04-20T18:30:56.690Z,15.47
2019-04-20T18:35:03.509Z,15.30
2019-04-20T18:39:10.267Z,15.07
2019-04-20T18:43:18.800Z,14.75
2019-04-20T18:47:40.563Z,14.44
2019-04-20T18:51:23.851Z,14.28
2019-04-20T18:55:40.732Z,14.07
2019-04-20T18:59:40.884Z,13.82
2019-04-20T19:03:42.700Z,13.70
2019-04-20T19:07:53.912Z,13.56
2019-04-20T19:11:55.812Z,13.29
2019-04-20T19:16:23.250Z,13.19
2019-04-20T19:20:26.455Z,13.19
2019-04-20T19:24:31.371Z,13.03
2019-04-20T19:28:41.047Z,12.88
2019-04-20T19:32:54.548Z,12.27
2019-04-20T19:37:00.097Z,11.59
2019-04-20T19:40:59.421Z,11.32
2019-04-20T19:45:17.588Z,10.87
2019-04-20T19:49:15.310Z,9.70
2019-04-20T19:53:26.547Z,9.65
2019-04-20T19:57:34.813Z,9.47
2019-04-20T20:01:17.720Z,9.49
2019-04-20T20:05:29.193Z,9.58
2019-04-20T20:09:28.002Z,9.64
2019-04-20T20:13:39.794Z,9.36
2019-04-20T20:17:54.200Z,8.85
2019-04-20T20:22:00.285Z,8.69
2019-04-20T20:25:49.626Z,8.60
2019-04-20T20:30:04.173Z,8.39
2019-04-20T20:34:10.938Z,8.50
2019-04-20T20:38:14.606Z,8.46
2019-04-20T20:42:26.171Z,8.38
2019-04-20T20:46:23.953Z,8.15
2019-04-20T20:50:42.687Z,8.12
2019-04-20T20:54:40.479Z,8.14
2019-04-20T20:58:43.758Z,8.13
2019-04-20T21:02:44.740Z,8.34
2019-04-20T21:06:44.998Z,8.06
2019-04-20T21:10:49.685Z,7.60
2019-04-20T21:14:55.199Z,7.47
2019-04-20T21:19:14.749Z,7.45
2019-04-20T21:23:18.080Z,7.34
2019-04-20T21:27:14.627Z,7.16
2019-04-20T21:31:20.394Z,7.19
2019-04-20T21:35:21.488Z,7.12
2019-04-20T21:39:34.823Z,6.98
2019-04-20T21:43:35.144Z,6.84
2019-04-20T21:47:40.846Z,6.73
2019-04-20T21:51:49.759Z,6.39
2019-04-20T21:55:47.999Z,6.38
2019-04-20T21:59:54.288Z,6.26
2019-04-20T22:03:58.483Z,6.30
2019-04-20T22:08:07.291Z,6.31
2019-04-20T22:12:07.856Z,6.16
2019-04-20T22:16:13.139Z,6.00
2019-04-20T22:20:26.751Z,5.82
2019-04-20T22:24:40.266Z,5.59
2019-04-20T22:28:27.687Z,5.65
2019-04-20T22:32:32.232Z,5.54
2019-04-20T22:36:41.435Z,5.57
2019-04-20T22:40:41.205Z,5.63
2019-04-20T22:44:48.521Z,5.51
2019-04-20T22:48:59.558Z,5.65
2019-04-20T22:53:15.613Z,5.88
2019-04-20T22:57:11.791Z,5.78
2019-04-20T23:01:23.995Z,5.67
2019-04-20T23:05:15.245Z,5.67
2019-04-20T23:09:18.886Z,5.48
2019-04-20T23:13:29.495Z,5.03
2019-04-20T23:17:36.561Z,4.63
2019-04-20T23:21:34.099Z,4.93
2019-04-20T23:25:38.895Z,4.97
2019-04-20T23:29:43.651Z,4.96
2019-04-20T23:33:47.911Z,4.94
2019-04-20T23:37:56.430Z,4.85
2019-04-20T23:42:02.417Z,4.72
2019-04-20T23:46:25.687Z,4.71
2019-04-20T23:50:40.950Z,4.74
2019-04-20T23:54:34.028Z,4.51
2019-04-20T23:58:42.857Z,4.64
